Time;durP1;ratioP1;P1;durP2;ratioP2;P2;SDS_P1;SDS_P2;PMS_P1;PMS_P2;Temp;Humidity;BMP_temperature;BMP_pressure;BME280_temperature;BME280_humidity;BME280_pressure;Samples;Min_cycle;Max_cycle;Signal;HPM_P1;HPM_P2
2021/11/13 00:01:14;;;;;;;65.53;31.33;;;;;;;;;;4448635;32;20455;-54
2021/11/13 00:03:39;;;;;;;60.23;27.87;;;;;;;;;;4449289;32;20236;-55
2021/11/13 00:06:05;;;;;;;48.10;24.20;;;;;;;;;;4456547;32;20743;-54
2021/11/13 00:08:30;;;;;;;38.40;22.00;;;;;;;;;;4464391;32;20358;-61
2021/11/13 00:10:56;;;;;;;35.87;19.03;;;;;;;;;;4464012;32;20309;-55
2021/11/13 00:13:23;;;;;;;35.13;16.50;;;;;;;;;;4464534;32;20305;-55
2021/11/13 00:15:50;;;;;;;33.33;18.73;;;;;;;;;;4464562;32;20208;-55
2021/11/13 00:18:15;;;;;;;45.60;22.23;;;;;;;;;;4464307;32;20347;-54
2021/11/13 00:20:41;;;;;;;42.27;20.70;;;;;;;;;;4464474;32;20321;-55
2021/11/13 00:23:07;;;;;;;52.00;25.23;;;;;;;;;;4464098;32;20231;-54
2021/11/13 00:25:33;;;;;;;50.80;25.33;;;;;;;;;;4463509;32;20295;-54
2021/11/13 00:27:58;;;;;;;60.87;31.13;;;;;;;;;;4463765;32;20616;-54
2021/11/13 00:30:24;;;;;;;71.10;32.40;;;;;;;;;;4464634;32;20301;-55
2021/11/13 00:32:50;;;;;;;63.50;33.13;;;;;;;;;;4462905;32;20292;-54
2021/11/13 00:35:16;;;;;;;61.40;32.43;;;;;;;;;;4463924;32;20291;-56
2021/11/13 00:37:41;;;;;;;54.83;28.27;;;;;;;;;;4464042;32;20248;-54
2021/11/13 00:40:09;;;;;;;58.67;29.47;;;;;;;;;;4463911;32;20298;-56
2021/11/13 00:42:37;;;;;;;60.93;31.30;;;;;;;;;;4462716;32;20842;-53
2021/11/13 00:45:03;;;;;;;78.00;39.90;;;;;;;;;;4464019;32;20349;-54
2021/11/13 00:47:29;;;;;;;76.20;35.13;;;;;;;;;;4462742;32;20311;-55
2021/11/13 00:49:55;;;;;;;61.33;32.33;;;;;;;;;;4464495;32;20381;-54
2021/11/13 00:52:20;;;;;;;69.27;33.77;;;;;;;;;;4463822;32;20267;-54
2021/11/13 00:54:46;;;;;;;57.27;32.83;;;;;;;;;;4463832;32;20346;-53
2021/11/13 00:57:11;;;;;;;61.40;30.37;;;;;;;;;;4463904;32;20301;-53
2021/11/13 00:59:37;;;;;;;78.40;32.47;;;;;;;;;;4464390;32;20374;-54
2021/11/13 01:02:05;;;;;;;55.33;28.43;;;;;;;;;;4463464;32;20354;-56
2021/11/13 01:04:31;;;;;;;52.20;27.87;;;;;;;;;;4463701;32;20671;-53
2021/11/13 01:06:56;;;;;;;41.27;24.43;;;;;;;;;;4450543;32;20303;-54
2021/11/13 01:09:22;;;;;;;51.27;26.87;;;;;;;;;;4448283;32;20633;-55
2021/11/13 01:11:47;;;;;;;53.40;26.30;;;;;;;;;;4448038;32;20330;-54
2021/11/13 01:14:13;;;;;;;51.10;26.27;;;;;;;;;;4448435;32;20279;-55
2021/11/13 01:16:39;;;;;;;59.57;26.77;;;;;;;;;;4448284;32;20241;-54
2021/11/13 01:19:05;;;;;;;53.40;26.10;;;;;;;;;;4448185;32;20707;-57
2021/11/13 01:21:31;;;;;;;51.37;24.83;;;;;;;;;;4448450;32;20304;-54
2021/11/13 01:23:57;;;;;;;58.47;25.77;;;;;;;;;;4450794;32;20354;-55
2021/11/13 01:26:22;;;;;;;58.23;26.00;;;;;;;;;;4463449;32;20323;-54
2021/11/13 01:28:49;;;;;;;46.20;26.17;;;;;;;;;;4463598;32;20306;-54
2021/11/13 01:31:15;;;;;;;53.60;26.80;;;;;;;;;;4463468;32;20705;-54
2021/11/13 01:33:43;;;;;;;61.30;29.43;;;;;;;;;;4462415;32;20291;-56
2021/11/13 01:36:08;;;;;;;73.10;30.87;;;;;;;;;;4463487;32;20252;-54
2021/11/13 01:38:34;;;;;;;74.57;28.60;;;;;;;;;;4463420;32;20274;-55
2021/11/13 01:41:01;;;;;;;60.50;27.20;;;;;;;;;;4451780;32;20307;-54
2021/11/13 01:43:26;;;;;;;64.37;34.40;;;;;;;;;;4451117;32;20752;-54
2021/11/13 01:45:52;;;;;;;74.80;36.43;;;;;;;;;;4451128;32;20310;-54
2021/11/13 01:48:18;;;;;;;90.70;38.67;;;;;;;;;;4449842;32;20322;-53
2021/11/13 01:50:46;;;;;;;78.10;37.03;;;;;;;;;;4451254;32;20299;-54
2021/11/13 01:53:12;;;;;;;72.57;34.93;;;;;;;;;;4449765;32;20192;-55
2021/11/13 01:55:39;;;;;;;76.27;37.80;;;;;;;;;;4450875;32;20654;-54
2021/11/13 01:58:10;;;;;;;80.13;40.33;;;;;;;;;;4454411;32;20276;-54
2021/11/13 02:00:41;;;;;;;95.30;46.73;;;;;;;;;;4466323;32;20192;-54
2021/11/13 02:03:07;;;;;;;88.17;45.33;;;;;;;;;;4466384;32;20366;-55
2021/11/13 02:05:33;;;;;;;93.83;45.80;;;;;;;;;;4466133;32;20321;-54
2021/11/13 02:07:59;;;;;;;82.83;44.03;;;;;;;;;;4466172;32;20351;-54
2021/11/13 02:10:26;;;;;;;99.47;46.50;;;;;;;;;;4465924;32;20293;-56
2021/11/13 02:12:53;;;;;;;93.13;47.87;;;;;;;;;;4466662;32;20250;-54
2021/11/13 02:15:19;;;;;;;109.00;48.97;;;;;;;;;;4465971;32;20231;-53
2021/11/13 02:17:45;;;;;;;102.80;53.43;;;;;;;;;;4466495;32;20395;-56
2021/11/13 02:20:43;;;;;;;108.63;54.20;;;;;;;;;;4466449;32;20359;-56
2021/11/13 02:23:10;;;;;;;99.83;50.63;;;;;;;;;;4439220;32;20335;-55
2021/11/13 02:25:36;;;;;;;82.27;44.53;;;;;;;;;;4465233;32;20255;-54
2021/11/13 02:28:04;;;;;;;86.93;43.07;;;;;;;;;;4465700;32;20632;-55
2021/11/13 02:30:30;;;;;;;73.37;38.77;;;;;;;;;;4465705;32;20220;-54
2021/11/13 02:32:57;;;;;;;77.40;37.63;;;;;;;;;;4465938;32;20228;-54
2021/11/13 02:35:25;;;;;;;71.73;39.23;;;;;;;;;;4464316;32;20216;-55
2021/11/13 02:37:51;;;;;;;87.17;40.07;;;;;;;;;;4450175;32;20274;-53
2021/11/13 02:40:17;;;;;;;82.07;40.13;;;;;;;;;;4449955;32;20284;-55
2021/11/13 02:42:44;;;;;;;86.97;40.57;;;;;;;;;;4450331;32;20324;-55
2021/11/13 02:45:12;;;;;;;79.13;42.47;;;;;;;;;;4450056;32;20236;-54
2021/11/13 02:47:46;;;;;;;84.03;42.30;;;;;;;;;;4450606;32;20659;-54
2021/11/13 02:50:15;;;;;;;79.93;39.77;;;;;;;;;;4450188;32;20229;-54
2021/11/13 02:52:51;;;;;;;72.53;38.57;;;;;;;;;;4449648;32;20256;-54
2021/11/13 02:55:17;;;;;;;67.87;39.13;;;;;;;;;;4459514;32;20215;-54
2021/11/13 02:57:42;;;;;;;70.77;39.70;;;;;;;;;;4465530;32;20307;-53
2021/11/13 03:00:10;;;;;;;75.20;37.90;;;;;;;;;;4465691;32;20268;-56
2021/11/13 03:02:37;;;;;;;71.83;40.37;;;;;;;;;;4465060;32;20659;-54
2021/11/13 03:05:04;;;;;;;84.60;42.17;;;;;;;;;;4465729;32;20212;-55
2021/11/13 03:07:29;;;;;;;72.60;40.50;;;;;;;;;;4463910;32;20251;-54
2021/11/13 03:09:55;;;;;;;81.43;44.17;;;;;;;;;;4465248;32;20292;-55
2021/11/13 03:12:20;;;;;;;95.53;46.87;;;;;;;;;;4464956;32;20260;-54
2021/11/13 03:14:46;;;;;;;85.90;44.47;;;;;;;;;;4465198;32;20354;-57
2021/11/13 03:17:12;;;;;;;84.33;46.40;;;;;;;;;;4463935;32;20253;-54
2021/11/13 03:19:38;;;;;;;79.17;44.20;;;;;;;;;;4465215;32;20289;-55
2021/11/13 03:22:04;;;;;;;84.97;44.37;;;;;;;;;;4463720;32;20228;-54
2021/11/13 03:24:30;;;;;;;73.83;41.00;;;;;;;;;;4456872;32;20323;-53
2021/11/13 03:26:58;;;;;;;71.23;39.87;;;;;;;;;;4449747;32;20361;-54
2021/11/13 03:29:31;;;;;;;80.73;40.50;;;;;;;;;;4449208;32;20271;-55
2021/11/13 03:31:57;;;;;;;55.67;32.10;;;;;;;;;;4452695;32;20273;-55
2021/11/13 03:34:23;;;;;;;57.97;30.67;;;;;;;;;;4464694;32;20333;-56
2021/11/13 03:36:49;;;;;;;51.83;26.17;;;;;;;;;;4464933;32;20227;-53
2021/11/13 03:39:14;;;;;;;49.40;26.70;;;;;;;;;;4464866;32;20321;-55
2021/11/13 03:41:40;;;;;;;51.00;24.90;;;;;;;;;;4464849;32;20280;-55
2021/11/13 03:44:06;;;;;;;49.77;25.63;;;;;;;;;;4464567;32;20632;-54
2021/11/13 03:46:31;;;;;;;48.13;23.97;;;;;;;;;;4464672;32;20671;-54
2021/11/13 03:48:57;;;;;;;50.07;27.40;;;;;;;;;;4464973;32;20286;-54
2021/11/13 03:51:22;;;;;;;49.80;26.57;;;;;;;;;;4463931;32;20285;-54
2021/11/13 03:53:49;;;;;;;56.07;31.60;;;;;;;;;;4464846;32;20306;-54
2021/11/13 03:56:14;;;;;;;88.37;42.17;;;;;;;;;;4464369;32;20496;-54
2021/11/13 03:58:40;;;;;;;105.07;53.83;;;;;;;;;;4464431;32;20284;-55
2021/11/13 04:01:06;;;;;;;94.13;46.17;;;;;;;;;;4463957;32;20248;-54
2021/11/13 04:03:31;;;;;;;87.77;43.47;;;;;;;;;;4462804;32;20220;-55
2021/11/13 04:05:57;;;;;;;87.27;40.70;;;;;;;;;;4457398;32;20295;-54
2021/11/13 04:08:23;;;;;;;78.03;38.30;;;;;;;;;;4448576;32;20350;-55
2021/11/13 04:10:49;;;;;;;72.53;42.20;;;;;;;;;;4450846;32;20275;-54
2021/11/13 04:13:14;;;;;;;82.70;40.93;;;;;;;;;;4464660;32;20271;-54
2021/11/13 04:15:40;;;;;;;69.23;36.03;;;;;;;;;;4464191;32;20319;-55
2021/11/13 04:18:06;;;;;;;76.97;37.97;;;;;;;;;;4462837;32;20223;-55
2021/11/13 04:20:31;;;;;;;71.07;36.47;;;;;;;;;;4464190;32;20358;-56
2021/11/13 04:22:57;;;;;;;81.53;38.27;;;;;;;;;;4462449;32;20394;-55
2021/11/13 04:25:23;;;;;;;71.93;34.70;;;;;;;;;;4463498;32;20405;-54
2021/11/13 04:27:50;;;;;;;76.33;36.63;;;;;;;;;;4464302;32;20268;-55
2021/11/13 04:30:16;;;;;;;79.80;37.97;;;;;;;;;;4464437;32;20241;-55
2021/11/13 04:32:43;;;;;;;77.67;37.13;;;;;;;;;;4464122;32;20262;-54
2021/11/13 04:35:20;;;;;;;84.00;39.47;;;;;;;;;;4464069;32;20611;-54
2021/11/13 04:37:49;;;;;;;74.20;39.20;;;;;;;;;;4464018;32;20223;-53
2021/11/13 04:40:16;;;;;;;92.93;43.20;;;;;;;;;;4463782;32;20353;-54
2021/11/13 04:42:42;;;;;;;106.03;44.80;;;;;;;;;;4462877;32;20277;-54
2021/11/13 04:45:08;;;;;;;92.47;44.83;;;;;;;;;;4463841;32;20317;-54
2021/11/13 04:47:34;;;;;;;94.83;47.37;;;;;;;;;;4463698;32;20248;-53
2021/11/13 04:50:01;;;;;;;84.80;44.17;;;;;;;;;;4463793;32;20298;-57
2021/11/13 04:52:27;;;;;;;106.63;47.87;;;;;;;;;;4463560;32;20224;-54
2021/11/13 04:54:53;;;;;;;115.00;48.50;;;;;;;;;;4463918;32;20293;-54
2021/11/13 04:57:19;;;;;;;108.83;46.73;;;;;;;;;;4463424;32;20571;-55
2021/11/13 04:59:44;;;;;;;107.97;48.63;;;;;;;;;;4462527;32;20287;-54
2021/11/13 05:02:10;;;;;;;93.27;44.30;;;;;;;;;;4461926;32;20291;-55
2021/11/13 05:04:35;;;;;;;102.00;45.60;;;;;;;;;;4463945;32;20313;-53
2021/11/13 05:07:01;;;;;;;95.63;44.13;;;;;;;;;;4449298;32;20243;-54
2021/11/13 05:09:26;;;;;;;89.60;42.10;;;;;;;;;;4447901;32;20791;-56
2021/11/13 05:11:52;;;;;;;95.90;42.07;;;;;;;;;;4457761;32;20254;-55
2021/11/13 05:14:17;;;;;;;109.43;44.03;;;;;;;;;;4463550;32;20471;-54
2021/11/13 05:16:43;;;;;;;94.77;44.87;;;;;;;;;;4463056;32;20248;-55
2021/11/13 05:19:09;;;;;;;142.83;64.27;;;;;;;;;;4463294;32;20490;-54
2021/11/13 05:21:39;;;;;;;130.30;54.40;;;;;;;;;;4463121;32;20743;-55
2021/11/13 05:24:04;;;;;;;146.10;56.90;;;;;;;;;;4461412;32;20230;-54
2021/11/13 05:26:30;;;;;;;151.83;62.97;;;;;;;;;;4448068;32;20213;-54
2021/11/13 05:28:55;;;;;;;116.93;50.43;;;;;;;;;;4446701;32;20363;-55
2021/11/13 05:31:21;;;;;;;90.80;42.20;;;;;;;;;;4447531;32;20325;-55
2021/11/13 05:33:46;;;;;;;99.37;45.77;;;;;;;;;;4448252;32;20669;-54
2021/11/13 05:36:12;;;;;;;122.60;55.47;;;;;;;;;;4447804;32;20224;-54
2021/11/13 05:38:37;;;;;;;235.13;95.20;;;;;;;;;;4447089;32;20288;-54
2021/11/13 05:41:03;;;;;;;285.73;109.83;;;;;;;;;;4447661;32;20216;-54
2021/11/13 05:43:29;;;;;;;218.30;87.87;;;;;;;;;;4453911;32;20375;-54
2021/11/13 05:45:55;;;;;;;173.03;69.57;;;;;;;;;;4463406;32;20283;-54
2021/11/13 05:48:21;;;;;;;152.83;66.97;;;;;;;;;;4463685;32;20414;-56
2021/11/13 05:50:46;;;;;;;125.17;60.50;;;;;;;;;;4461733;32;20287;-53
2021/11/13 05:53:12;;;;;;;163.60;68.63;;;;;;;;;;4463475;32;20235;-54
2021/11/13 05:55:39;;;;;;;150.67;65.23;;;;;;;;;;4463727;32;20370;-55
2021/11/13 05:58:05;;;;;;;156.67;70.27;;;;;;;;;;4463282;32;20216;-55
2021/11/13 06:00:31;;;;;;;132.90;65.87;;;;;;;;;;4463723;32;20263;-55
2021/11/13 06:02:57;;;;;;;157.90;71.20;;;;;;;;;;4463051;32;20277;-54
2021/11/13 06:05:22;;;;;;;156.40;67.83;;;;;;;;;;4463081;32;20306;-55
2021/11/13 06:07:48;;;;;;;151.90;76.00;;;;;;;;;;4462197;32;20719;-56
2021/11/13 06:10:15;;;;;;;187.63;82.07;;;;;;;;;;4461100;32;20339;-56
2021/11/13 06:12:41;;;;;;;196.97;86.73;;;;;;;;;;4447134;32;20390;-55
2021/11/13 06:15:07;;;;;;;199.77;90.83;;;;;;;;;;4461738;32;20317;-56
2021/11/13 06:17:33;;;;;;;196.60;94.97;;;;;;;;;;4461368;32;20688;-54
2021/11/13 06:19:59;;;;;;;229.40;102.07;;;;;;;;;;4463498;32;20289;-55
2021/11/13 06:22:25;;;;;;;235.50;103.90;;;;;;;;;;4448673;32;20485;-54
2021/11/13 06:24:50;;;;;;;187.47;88.40;;;;;;;;;;4454293;32;20394;-55
2021/11/13 06:27:17;;;;;;;183.00;87.40;;;;;;;;;;4465071;32;20247;-54
2021/11/13 06:29:43;;;;;;;191.83;86.47;;;;;;;;;;4465001;32;20367;-55
2021/11/13 06:32:09;;;;;;;193.90;92.60;;;;;;;;;;4466114;32;20485;-55
2021/11/13 06:34:35;;;;;;;199.17;97.43;;;;;;;;;;4464722;32;20314;-56
2021/11/13 06:37:00;;;;;;;196.60;94.27;;;;;;;;;;4466065;32;20228;-54
2021/11/13 06:39:26;;;;;;;225.73;96.23;;;;;;;;;;4464260;32;20298;-54
2021/11/13 06:41:52;;;;;;;215.77;102.10;;;;;;;;;;4464995;32;20227;-54
2021/11/13 06:44:17;;;;;;;239.83;108.60;;;;;;;;;;4465485;32;20287;-55
2021/11/13 06:46:43;;;;;;;246.27;108.63;;;;;;;;;;4465929;32;21047;-55
2021/11/13 06:49:08;;;;;;;263.03;119.23;;;;;;;;;;4465500;32;20272;-55
2021/11/13 06:51:34;;;;;;;229.20;114.07;;;;;;;;;;4463872;32;20272;-54
2021/11/13 06:53:59;;;;;;;232.17;109.70;;;;;;;;;;4465572;32;20331;-55
2021/11/13 06:56:25;;;;;;;232.53;113.57;;;;;;;;;;4465503;32;20312;-54
2021/11/13 06:58:51;;;;;;;229.23;109.63;;;;;;;;;;4465532;32;20267;-56
2021/11/13 07:01:17;;;;;;;218.30;96.97;;;;;;;;;;4464844;32;20254;-54
2021/11/13 07:03:42;;;;;;;227.43;102.27;;;;;;;;;;4464879;32;20303;-55
2021/11/13 07:06:08;;;;;;;217.23;105.17;;;;;;;;;;4463267;32;20220;-54
2021/11/13 07:08:33;;;;;;;203.17;95.40;;;;;;;;;;4464654;32;20303;-57
2021/11/13 07:10:59;;;;;;;207.17;103.37;;;;;;;;;;4464916;32;20330;-55
2021/11/13 07:13:25;;;;;;;196.03;98.27;;;;;;;;;;4463746;32;20719;-54
2021/11/13 07:15:52;;;;;;;192.27;93.93;;;;;;;;;;4463555;32;20256;-54
2021/11/13 07:18:18;;;;;;;222.83;102.80;;;;;;;;;;4464805;32;20275;-55
2021/11/13 07:20:54;;;;;;;272.67;117.53;;;;;;;;;;4465163;32;20498;-55
2021/11/13 07:23:20;;;;;;;286.57;133.83;;;;;;;;;;4465093;32;20232;-55
2021/11/13 07:25:45;;;;;;;294.27;137.53;;;;;;;;;;4448673;32;20868;-54
2021/11/13 07:28:14;;;;;;;306.43;144.27;;;;;;;;;;4449519;32;20247;-54
2021/11/13 07:30:42;;;;;;;260.23;116.07;;;;;;;;;;4449567;32;20258;-55
2021/11/13 07:33:09;;;;;;;214.97;102.60;;;;;;;;;;4449213;32;20192;-54
2021/11/13 07:35:40;;;;;;;171.43;84.33;;;;;;;;;;4452896;32;20235;-56
2021/11/13 07:38:06;;;;;;;157.03;74.57;;;;;;;;;;4463184;32;20235;-54
2021/11/13 07:40:32;;;;;;;102.83;58.10;;;;;;;;;;4465154;32;20311;-55
2021/11/13 07:43:00;;;;;;;119.80;60.10;;;;;;;;;;4464812;32;20329;-55
2021/11/13 07:45:26;;;;;;;94.77;50.87;;;;;;;;;;4465045;32;20232;-54
2021/11/13 07:47:52;;;;;;;93.90;52.27;;;;;;;;;;4465140;32;20227;-55
2021/11/13 07:50:18;;;;;;;73.50;41.37;;;;;;;;;;4464918;32;20675;-56
2021/11/13 07:52:44;;;;;;;58.90;32.53;;;;;;;;;;4450985;32;20228;-54
2021/11/13 07:55:11;;;;;;;48.77;27.33;;;;;;;;;;4464991;32;20220;-53
2021/11/13 07:57:37;;;;;;;72.33;40.47;;;;;;;;;;4464009;32;20256;-55
2021/11/13 08:00:07;;;;;;;59.67;32.53;;;;;;;;;;4462385;32;20667;-55
2021/11/13 08:02:33;;;;;;;73.30;37.97;;;;;;;;;;4463463;32;20598;-55
2021/11/13 08:04:59;;;;;;;77.67;41.73;;;;;;;;;;4464197;32;20688;-55
2021/11/13 08:07:24;;;;;;;77.80;42.57;;;;;;;;;;4464368;32;20323;-56
2021/11/13 08:09:50;;;;;;;71.97;37.87;;;;;;;;;;4463366;32;20662;-55
2021/11/13 08:12:16;;;;;;;67.80;36.63;;;;;;;;;;4464524;32;20220;-56
2021/11/13 08:14:41;;;;;;;79.87;39.60;;;;;;;;;;4464180;32;20305;-55
2021/11/13 08:17:07;;;;;;;78.73;45.00;;;;;;;;;;4464025;32;20459;-56
2021/11/13 08:19:32;;;;;;;71.93;40.93;;;;;;;;;;4464277;32;20655;-56
2021/11/13 08:21:58;;;;;;;78.50;45.40;;;;;;;;;;4464110;32;20224;-55
2021/11/13 08:24:23;;;;;;;83.00;49.30;;;;;;;;;;4463416;32;20291;-55
2021/11/13 08:26:49;;;;;;;82.17;43.07;;;;;;;;;;4464304;32;20250;-55
2021/11/13 08:29:15;;;;;;;77.27;49.37;;;;;;;;;;4463815;32;20282;-55
2021/11/13 08:31:41;;;;;;;89.50;48.50;;;;;;;;;;4463230;32;20224;-55
2021/11/13 08:34:06;;;;;;;90.67;50.50;;;;;;;;;;4461124;32;20737;-55
2021/11/13 08:36:32;;;;;;;106.10;53.07;;;;;;;;;;4461868;32;20252;-55
2021/11/13 08:38:58;;;;;;;93.77;51.60;;;;;;;;;;4456615;32;20325;-54
2021/11/13 08:41:23;;;;;;;88.07;48.33;;;;;;;;;;4448650;32;20256;-55
2021/11/13 08:43:49;;;;;;;55.53;34.40;;;;;;;;;;4447876;32;20305;-55
2021/11/13 08:46:15;;;;;;;60.53;29.40;;;;;;;;;;4448004;32;20695;-55
2021/11/13 08:48:41;;;;;;;50.17;26.87;;;;;;;;;;4447661;32;20672;-55
2021/11/13 08:51:06;;;;;;;38.33;23.80;;;;;;;;;;4446945;32;20292;-54
2021/11/13 08:53:32;;;;;;;33.83;19.50;;;;;;;;;;4447671;32;20335;-55
2021/11/13 08:55:58;;;;;;;43.50;22.97;;;;;;;;;;4446566;32;20670;-54
2021/11/13 08:58:24;;;;;;;50.13;24.33;;;;;;;;;;4450568;32;20310;-55
2021/11/13 09:00:53;;;;;;;62.73;24.03;;;;;;;;;;4459650;32;20235;-55
2021/11/13 09:03:24;;;;;;;39.63;22.70;;;;;;;;;;4461529;32;20259;-55
2021/11/13 09:05:51;;;;;;;46.00;23.27;;;;;;;;;;4453802;32;20236;-55
2021/11/13 09:08:18;;;;;;;45.13;25.80;;;;;;;;;;4444052;32;20295;-55
2021/11/13 09:10:44;;;;;;;34.33;22.30;;;;;;;;;;4447212;32;20860;-55
2021/11/13 09:13:10;;;;;;;37.37;21.83;;;;;;;;;;4459564;32;20392;-55
2021/11/13 09:15:38;;;;;;;34.40;20.67;;;;;;;;;;4459664;32;20232;-55
2021/11/13 09:18:04;;;;;;;31.90;21.10;;;;;;;;;;4461759;32;20686;-55
2021/11/13 09:20:30;;;;;;;37.03;23.17;;;;;;;;;;4463675;32;20236;-56
2021/11/13 09:22:56;;;;;;;39.70;24.03;;;;;;;;;;4463719;32;20302;-54
2021/11/13 09:25:22;;;;;;;47.93;21.83;;;;;;;;;;4463191;32;20279;-56
2021/11/13 09:27:49;;;;;;;41.73;23.10;;;;;;;;;;4463620;32;20410;-55
2021/11/13 09:30:19;;;;;;;53.43;23.93;;;;;;;;;;4464135;32;20243;-55
2021/11/13 09:32:46;;;;;;;38.53;21.67;;;;;;;;;;4463668;32;20602;-54
2021/11/13 09:35:14;;;;;;;46.23;24.07;;;;;;;;;;4463729;32;20262;-55
2021/11/13 09:37:40;;;;;;;37.30;23.03;;;;;;;;;;4463433;32;20235;-55
2021/11/13 09:40:07;;;;;;;44.17;26.93;;;;;;;;;;4463883;32;20296;-55
2021/11/13 09:42:33;;;;;;;47.33;26.97;;;;;;;;;;4462350;32;20236;-55
2021/11/13 09:44:59;;;;;;;45.10;26.77;;;;;;;;;;4463069;32;20242;-56
2021/11/13 09:47:25;;;;;;;40.97;22.33;;;;;;;;;;4461661;32;20303;-54
2021/11/13 09:49:52;;;;;;;36.87;21.93;;;;;;;;;;4463285;32;20596;-56
2021/11/13 09:52:17;;;;;;;33.40;21.37;;;;;;;;;;4462865;32;20254;-54
2021/11/13 09:54:45;;;;;;;41.60;22.87;;;;;;;;;;4462717;32;20353;-55
2021/11/13 09:57:11;;;;;;;74.83;24.73;;;;;;;;;;4461687;32;20361;-54
2021/11/13 09:59:37;;;;;;;67.57;25.77;;;;;;;;;;4462741;32;20339;-56
2021/11/13 10:02:02;;;;;;;41.27;24.60;;;;;;;;;;4463354;32;20252;-54
2021/11/13 10:04:28;;;;;;;54.53;23.90;;;;;;;;;;4465513;32;20303;-57
2021/11/13 10:06:54;;;;;;;30.23;17.60;;;;;;;;;;4465460;32;20361;-55
2021/11/13 10:09:19;;;;;;;32.63;19.40;;;;;;;;;;4466074;32;20302;-54
2021/11/13 10:11:48;;;;;;;34.33;20.63;;;;;;;;;;4465613;32;20220;-54
2021/11/13 10:14:15;;;;;;;24.60;14.03;;;;;;;;;;4465882;32;20276;-55
2021/11/13 10:16:46;;;;;;;27.33;17.93;;;;;;;;;;4465716;32;20738;-55
2021/11/13 10:19:15;;;;;;;28.90;17.43;;;;;;;;;;4465848;32;20192;-55
2021/11/13 10:21:43;;;;;;;29.70;16.50;;;;;;;;;;4466048;32;20228;-55
2021/11/13 10:24:16;;;;;;;42.07;18.57;;;;;;;;;;4464772;32;20544;-56
2021/11/13 10:26:47;;;;;;;38.17;17.47;;;;;;;;;;4463917;32;20254;-56
2021/11/13 10:29:25;;;;;;;39.47;15.67;;;;;;;;;;4465323;32;20240;-55
2021/11/13 10:32:03;;;;;;;26.17;15.00;;;;;;;;;;4465315;32;20254;-54
2021/11/13 10:34:36;;;;;;;18.90;13.47;;;;;;;;;;4465405;32;20354;-55
2021/11/13 10:37:05;;;;;;;18.60;12.00;;;;;;;;;;4464906;32;20235;-55
2021/11/13 10:39:34;;;;;;;22.10;12.70;;;;;;;;;;4464057;32;20311;-56
2021/11/13 10:42:06;;;;;;;31.17;13.57;;;;;;;;;;4463867;32;20253;-55
2021/11/13 10:44:37;;;;;;;18.77;10.80;;;;;;;;;;4465237;32;20558;-54
2021/11/13 10:47:09;;;;;;;22.70;13.17;;;;;;;;;;4464501;32;20239;-55
2021/11/13 10:49:34;;;;;;;15.13;9.97;;;;;;;;;;4462858;32;20201;-55
2021/11/13 10:52:02;;;;;;;15.00;10.27;;;;;;;;;;4463519;32;20302;-55
2021/11/13 10:54:30;;;;;;;24.50;13.70;;;;;;;;;;4462952;32;20378;-56
2021/11/13 10:56:59;;;;;;;19.63;10.67;;;;;;;;;;4462084;32;20236;-56
2021/11/13 10:59:31;;;;;;;16.20;11.07;;;;;;;;;;4463280;32;20553;-55
2021/11/13 11:01:59;;;;;;;19.00;11.53;;;;;;;;;;4463863;32;20307;-55
2021/11/13 11:04:28;;;;;;;29.63;12.43;;;;;;;;;;4448303;32;20303;-55
2021/11/13 11:07:03;;;;;;;17.27;10.93;;;;;;;;;;4454256;32;20306;-56
2021/11/13 11:09:35;;;;;;;27.37;11.53;;;;;;;;;;4464823;32;20258;-55
2021/11/13 11:12:11;;;;;;;19.63;10.77;;;;;;;;;;4464047;32;20597;-56
2021/11/13 11:14:40;;;;;;;20.00;13.40;;;;;;;;;;4464776;32;20200;-54
2021/11/13 11:17:09;;;;;;;20.17;12.23;;;;;;;;;;4453612;32;20311;-56
2021/11/13 11:19:36;;;;;;;23.03;12.43;;;;;;;;;;4441294;32;20241;-56
2021/11/13 11:22:13;;;;;;;20.60;11.77;;;;;;;;;;4457027;32;20287;-55
2021/11/13 11:24:57;;;;;;;16.93;11.37;;;;;;;;;;4450442;32;20516;-56
2021/11/13 11:27:30;;;;;;;17.03;11.53;;;;;;;;;;4455574;32;20227;-55
2021/11/13 11:29:57;;;;;;;17.60;12.20;;;;;;;;;;4462232;32;20295;-55
2021/11/13 11:32:35;;;;;;;14.10;9.93;;;;;;;;;;4463324;32;20267;-56
2021/11/13 11:35:05;;;;;;;18.67;11.40;;;;;;;;;;4464196;32;20256;-56
2021/11/13 11:37:36;;;;;;;20.53;13.57;;;;;;;;;;4463983;32;20750;-55
2021/11/13 11:40:14;;;;;;;21.53;13.53;;;;;;;;;;4464417;32;20325;-56
2021/11/13 11:42:44;;;;;;;19.57;12.10;;;;;;;;;;4461684;32;20220;-55
2021/11/13 11:45:12;;;;;;;21.17;11.13;;;;;;;;;;4449581;32;20217;-54
2021/11/13 11:47:39;;;;;;;25.73;12.37;;;;;;;;;;4456579;32;20321;-54
2021/11/13 11:50:08;;;;;;;23.20;12.17;;;;;;;;;;4457563;32;20236;-55
2021/11/13 11:52:35;;;;;;;22.13;11.10;;;;;;;;;;4463865;32;20673;-57
2021/11/13 11:55:04;;;;;;;24.77;11.93;;;;;;;;;;4462895;32;20588;-57
2021/11/13 11:57:36;;;;;;;19.37;12.77;;;;;;;;;;4463304;32;20247;-54
2021/11/13 12:00:08;;;;;;;25.10;14.87;;;;;;;;;;4440480;32;20275;-54
2021/11/13 12:02:45;;;;;;;18.40;10.43;;;;;;;;;;4457530;32;20615;-54
2021/11/13 12:05:14;;;;;;;16.40;10.70;;;;;;;;;;4460108;32;20239;-56
2021/11/13 12:07:41;;;;;;;13.97;8.73;;;;;;;;;;4462512;32;20245;-54
2021/11/13 12:10:14;;;;;;;13.57;8.97;;;;;;;;;;4461293;32;20613;-54
2021/11/13 12:12:59;;;;;;;19.97;10.10;;;;;;;;;;4461354;32;20254;-55
2021/11/13 12:15:25;;;;;;;14.53;10.27;;;;;;;;;;4445696;32;20245;-55
2021/11/13 12:17:52;;;;;;;14.50;10.00;;;;;;;;;;4458920;32;20227;-55
2021/11/13 12:20:30;;;;;;;24.07;11.13;;;;;;;;;;4460373;32;20313;-54
2021/11/13 12:23:03;;;;;;;18.70;10.93;;;;;;;;;;4464054;32;20290;-55
2021/11/13 12:25:33;;;;;;;21.20;11.23;;;;;;;;;;4455844;32;20298;-53
2021/11/13 12:28:19;;;;;;;17.90;11.43;;;;;;;;;;4463348;32;20290;-55
2021/11/13 12:30:54;;;;;;;19.60;12.90;;;;;;;;;;4462863;32;20265;-54
2021/11/13 12:33:29;;;;;;;26.17;13.40;;;;;;;;;;4462178;32;20566;-55
2021/11/13 12:36:13;;;;;;;17.83;13.23;;;;;;;;;;4459806;32;20278;-54
2021/11/13 12:38:52;;;;;;;24.77;13.27;;;;;;;;;;4458819;32;20286;-54
2021/11/13 12:41:42;;;;;;;19.10;12.40;;;;;;;;;;4459510;32;20247;-55
2021/11/13 12:44:37;;;;;;;20.77;12.23;;;;;;;;;;4459173;32;20564;-53
2021/11/13 12:47:07;;;;;;;18.07;13.00;;;;;;;;;;4459713;32;20710;-54
2021/11/13 12:49:51;;;;;;;19.83;11.60;;;;;;;;;;4459910;32;20243;-54
2021/11/13 12:52:28;;;;;;;36.60;19.10;;;;;;;;;;4462189;32;20216;-54
2021/11/13 12:55:12;;;;;;;33.70;19.90;;;;;;;;;;4457008;32;20650;-54
2021/11/13 12:57:58;;;;;;;24.33;15.03;;;;;;;;;;4447809;32;20216;-53
2021/11/13 13:00:46;;;;;;;30.87;15.30;;;;;;;;;;4447428;32;20323;-53
2021/11/13 13:03:21;;;;;;;34.23;15.93;;;;;;;;;;4456126;32;20965;-54
2021/11/13 13:05:47;;;;;;;25.77;15.20;;;;;;;;;;4447467;32;20526;-54
2021/11/13 13:08:17;;;;;;;27.20;17.43;;;;;;;;;;4447484;32;20231;-55
2021/11/13 13:10:42;;;;;;;27.47;15.83;;;;;;;;;;4450302;32;20204;-55
2021/11/13 13:13:10;;;;;;;27.73;16.83;;;;;;;;;;4462939;32;20258;-53
2021/11/13 13:15:49;;;;;;;30.73;18.57;;;;;;;;;;4462930;32;20189;-55
2021/11/13 13:18:16;;;;;;;33.40;16.23;;;;;;;;;;4462871;32;20196;-54
2021/11/13 13:20:43;;;;;;;33.00;19.23;;;;;;;;;;4462821;32;20660;-55
2021/11/13 13:23:20;;;;;;;30.97;18.07;;;;;;;;;;4462837;32;20689;-54
2021/11/13 13:25:48;;;;;;;35.40;20.20;;;;;;;;;;4462488;32;20204;-55
2021/11/13 13:28:17;;;;;;;31.93;19.53;;;;;;;;;;4463075;32;20230;-54
2021/11/13 13:30:43;;;;;;;32.53;20.40;;;;;;;;;;4462689;32;20246;-54
2021/11/13 13:33:09;;;;;;;33.13;19.47;;;;;;;;;;4462854;32;20229;-55
2021/11/13 13:35:37;;;;;;;30.40;18.43;;;;;;;;;;4462819;32;20316;-60
2021/11/13 13:38:07;;;;;;;30.57;19.13;;;;;;;;;;4464912;32;20270;-55
2021/11/13 13:40:43;;;;;;;36.13;20.37;;;;;;;;;;4466039;32;20207;-55
2021/11/13 13:43:18;;;;;;;38.40;20.20;;;;;;;;;;4466127;32;20647;-54
2021/11/13 13:45:56;;;;;;;27.87;18.23;;;;;;;;;;4466105;32;20274;-55
2021/11/13 13:48:37;;;;;;;33.17;22.07;;;;;;;;;;4466246;32;20195;-55
2021/11/13 13:51:13;;;;;;;45.63;23.17;;;;;;;;;;4459127;32;20307;-55
2021/11/13 13:53:44;;;;;;;40.30;22.20;;;;;;;;;;4450868;32;20263;-54
2021/11/13 13:56:34;;;;;;;45.87;25.90;;;;;;;;;;4450461;32;20274;-55
2021/11/13 13:59:02;;;;;;;40.67;25.13;;;;;;;;;;4450659;32;20590;-53
2021/11/13 14:01:32;;;;;;;46.10;26.23;;;;;;;;;;4449914;32;20268;-54
2021/11/13 14:04:05;;;;;;;50.10;28.27;;;;;;;;;;4448971;32;20268;-54
2021/11/13 14:06:31;;;;;;;46.63;26.50;;;;;;;;;;4460477;32;20216;-54
2021/11/13 14:08:56;;;;;;;54.63;27.53;;;;;;;;;;4465808;32;20271;-54
2021/11/13 14:11:27;;;;;;;48.23;28.73;;;;;;;;;;4465557;32;20564;-54
2021/11/13 14:13:54;;;;;;;54.93;31.27;;;;;;;;;;4466142;32;20208;-55
2021/11/13 14:16:19;;;;;;;52.33;29.63;;;;;;;;;;4461749;32;20340;-55
2021/11/13 14:18:46;;;;;;;60.17;34.03;;;;;;;;;;4455293;32;20197;-54